Time;durP1;ratioP1;P1;durP2;ratioP2;P2;SDS_P1;SDS_P2;PMS_P1;PMS_P2;Temp;Humidity;BMP_temperature;BMP_pressure;BME280_temperature;BME280_humidity;BME280_pressure;Samples;Min_cycle;Max_cycle;Signal;HPM_P1;HPM_P2
2021/05/08 00:01:16;;;;;;;1.50;0.70;;;22.40;35.00;;;;;;5054117;28;20390;-65
2021/05/08 00:03:41;;;;;;;1.13;0.60;;;22.40;34.90;;;;;;5053498;28;20400;-72
2021/05/08 00:06:09;;;;;;;1.02;0.60;;;22.40;34.90;;;;;;5054178;28;20389;-70
2021/05/08 00:08:35;;;;;;;1.98;0.80;;;22.40;34.80;;;;;;5053826;28;20385;-74
2021/05/08 00:11:02;;;;;;;1.27;0.50;;;22.40;34.80;;;;;;5053962;28;20482;-72
2021/05/08 00:13:27;;;;;;;1.15;0.68;;;22.40;34.80;;;;;;5053234;28;20428;-77
2021/05/08 00:15:53;;;;;;;0.93;0.50;;;22.40;34.80;;;;;;5053821;28;20413;-76
2021/05/08 00:18:18;;;;;;;0.77;0.50;;;22.40;34.70;;;;;;5053865;28;20421;-72
2021/05/08 00:20:44;;;;;;;0.90;0.50;;;22.40;34.70;;;;;;5053920;28;20417;-73
2021/05/08 00:23:10;;;;;;;0.90;0.57;;;22.40;34.70;;;;;;5053762;28;20425;-74
2021/05/08 00:25:35;;;;;;;1.17;0.50;;;22.40;34.70;;;;;;5053298;28;20374;-77
2021/05/08 00:28:01;;;;;;;1.30;0.60;;;22.40;34.70;;;;;;5053796;28;20381;-72
2021/05/08 00:30:27;;;;;;;1.27;0.60;;;22.30;34.70;;;;;;5035906;28;20496;-74
2021/05/08 00:32:52;;;;;;;1.20;0.60;;;22.40;34.70;;;;;;5053580;28;20888;-69
2021/05/08 00:35:18;;;;;;;0.80;0.50;;;22.40;34.70;;;;;;5053492;28;20893;-72
2021/05/08 00:37:44;;;;;;;1.30;0.60;;;22.30;34.60;;;;;;5053084;28;20389;-76
2021/05/08 00:40:10;;;;;;;0.80;0.47;;;22.30;34.60;;;;;;5053613;28;20907;-74
2021/05/08 00:42:36;;;;;;;2.00;0.50;;;22.30;34.60;;;;;;5035668;28;20396;-74
2021/05/08 00:45:02;;;;;;;1.03;0.50;;;22.30;34.60;;;;;;5053647;28;20397;-74
2021/05/08 00:47:28;;;;;;;1.20;0.70;;;22.30;34.60;;;;;;5052722;28;20467;-76
2021/05/08 00:49:54;;;;;;;1.05;0.60;;;22.40;34.60;;;;;;5053286;28;20745;-75
2021/05/08 00:52:20;;;;;;;1.02;0.50;;;22.30;34.50;;;;;;5053159;28;20475;-75
2021/05/08 00:54:46;;;;;;;0.80;0.50;;;22.30;34.50;;;;;;5053107;28;20796;-77
2021/05/08 00:57:12;;;;;;;0.90;0.50;;;22.30;34.50;;;;;;5053403;28;20400;-65
2021/05/08 00:59:38;;;;;;;0.90;0.53;;;22.30;34.50;;;;;;5052688;28;20424;-77
2021/05/08 01:02:04;;;;;;;0.90;0.50;;;22.30;34.50;;;;;;5053022;28;20413;-71
2021/05/08 01:04:34;;;;;;;0.90;0.50;;;22.30;34.40;;;;;;5052813;28;20412;-68
2021/05/08 01:07:00;;;;;;;1.13;0.70;;;22.30;34.40;;;;;;5052787;28;20397;-65
2021/05/08 01:09:26;;;;;;;1.08;0.60;;;22.30;34.40;;;;;;5034318;28;20874;-77
2021/05/08 01:11:52;;;;;;;0.90;0.50;;;22.30;34.30;;;;;;5034324;28;20471;-64
2021/05/08 01:14:17;;;;;;;0.90;0.50;;;22.30;34.40;;;;;;5052623;28;20381;-64
2021/05/08 01:16:44;;;;;;;1.20;0.60;;;22.30;34.30;;;;;;5052678;28;20726;-65
2021/05/08 01:19:14;;;;;;;0.90;0.50;;;22.30;34.30;;;;;;5052611;28;20469;-75
2021/05/08 01:21:40;;;;;;;1.27;0.50;;;22.30;34.30;;;;;;5052123;28;20417;-75
2021/05/08 01:24:06;;;;;;;1.10;0.60;;;22.30;34.30;;;;;;5052637;28;20432;-75
2021/05/08 01:26:32;;;;;;;1.00;0.60;;;22.20;34.30;;;;;;5034677;28;20451;-75
2021/05/08 01:28:58;;;;;;;0.80;0.50;;;22.20;34.30;;;;;;5034597;28;20385;-72
2021/05/08 01:31:24;;;;;;;0.75;0.50;;;22.20;34.30;;;;;;5052201;28;20861;-73
2021/05/08 01:33:50;;;;;;;0.65;0.45;;;22.20;34.20;;;;;;5034388;28;20390;-75
2021/05/08 01:36:16;;;;;;;1.30;0.50;;;22.20;34.20;;;;;;5052218;28;20509;-76
2021/05/08 01:38:43;;;;;;;0.85;0.57;;;22.20;34.20;;;;;;5052365;28;20397;-69
2021/05/08 01:41:11;;;;;;;0.85;0.60;;;22.20;34.20;;;;;;5052333;28;20392;-69
2021/05/08 01:43:37;;;;;;;0.75;0.45;;;22.20;34.20;;;;;;5051754;28;20400;-76
2021/05/08 01:46:03;;;;;;;0.85;0.60;;;22.20;34.20;;;;;;5052100;28;20393;-67
2021/05/08 01:48:29;;;;;;;1.33;0.70;;;22.20;34.20;;;;;;5051955;28;20861;-65
2021/05/08 01:50:55;;;;;;;0.88;0.60;;;22.20;34.20;;;;;;5052146;28;20401;-65
2021/05/08 01:53:22;;;;;;;0.98;0.77;;;22.20;34.20;;;;;;5051819;28;20418;-72
2021/05/08 01:55:48;;;;;;;0.93;0.60;;;22.20;34.20;;;;;;5033561;28;20452;-68
2021/05/08 01:58:14;;;;;;;0.80;0.50;;;22.20;34.20;;;;;;5051983;28;20412;-69
2021/05/08 02:00:43;;;;;;;0.90;0.60;;;22.20;34.20;;;;;;5051937;28;20765;-74
2021/05/08 02:03:09;;;;;;;0.90;0.50;;;22.20;34.20;;;;;;5051946;28;20378;-75
2021/05/08 02:05:37;;;;;;;0.75;0.50;;;22.10;34.10;;;;;;5051434;28;20496;-76
2021/05/08 02:08:06;;;;;;;0.90;0.40;;;22.10;34.10;;;;;;5051773;28;20468;-76
2021/05/08 02:10:36;;;;;;;0.80;0.50;;;22.10;34.10;;;;;;5051913;28;20473;-76
2021/05/08 02:13:04;;;;;;;1.02;0.60;;;22.10;34.10;;;;;;5051603;28;20405;-75
2021/05/08 02:15:30;;;;;;;0.90;0.60;;;22.10;34.00;;;;;;5051187;28;20421;-76
2021/05/08 02:17:56;;;;;;;1.02;0.50;;;22.10;34.10;;;;;;5051541;28;20442;-77
2021/05/08 02:20:27;;;;;;;0.60;0.50;;;22.10;34.10;;;;;;5051638;28;20388;-76
2021/05/08 02:23:00;;;;;;;0.90;0.50;;;22.10;34.10;;;;;;5051007;28;20432;-77
2021/05/08 02:25:26;;;;;;;0.80;0.50;;;22.10;34.10;;;;;;5051664;28;20421;-77
2021/05/08 02:27:52;;;;;;;0.80;0.50;;;22.10;34.00;;;;;;5051378;28;20480;-75
2021/05/08 02:30:23;;;;;;;0.67;0.40;;;22.10;34.10;;;;;;5051440;28;20428;-76
2021/05/08 02:32:49;;;;;;;1.00;0.60;;;22.10;34.10;;;;;;5051607;28;20916;-75
2021/05/08 02:35:16;;;;;;;0.93;0.57;;;22.10;34.10;;;;;;5051390;28;20417;-76
2021/05/08 02:37:42;;;;;;;0.70;0.50;;;22.10;34.10;;;;;;5050895;28;20393;-77
2021/05/08 02:40:10;;;;;;;0.90;0.50;;;22.10;34.10;;;;;;5051553;28;20398;-75
2021/05/08 02:42:37;;;;;;;0.50;0.40;;;22.00;34.00;;;;;;5051357;28;20876;-75
2021/05/08 02:45:04;;;;;;;1.00;0.60;;;22.00;34.10;;;;;;5051357;28;20817;-77
2021/05/08 02:47:30;;;;;;;1.05;0.52;;;22.00;34.00;;;;;;5050974;28;20468;-76
2021/05/08 02:49:56;;;;;;;0.90;0.50;;;22.00;34.10;;;;;;5050989;28;20790;-76
2021/05/08 02:52:22;;;;;;;1.00;0.50;;;22.10;34.00;;;;;;5033467;28;20382;-74
2021/05/08 02:54:48;;;;;;;0.70;0.50;;;22.10;34.00;;;;;;5051192;28;20504;-73
2021/05/08 02:57:14;;;;;;;0.80;0.57;;;22.00;33.90;;;;;;5051257;28;20385;-68
2021/05/08 02:59:40;;;;;;;1.08;0.60;;;22.00;33.90;;;;;;5050878;28;20493;-76
2021/05/08 03:02:05;;;;;;;0.60;0.47;;;22.10;34.60;;;;;;5051261;28;20464;-77
2021/05/08 03:04:32;;;;;;;0.98;0.50;;;22.00;34.00;;;;;;5051089;28;20393;-74
2021/05/08 03:07:01;;;;;;;0.77;0.50;;;22.00;34.00;;;;;;5051158;28;20864;-74
2021/05/08 03:09:27;;;;;;;1.08;0.60;;;22.00;34.00;;;;;;5051027;28;20406;-68
2021/05/08 03:11:53;;;;;;;0.95;0.50;;;22.00;34.00;;;;;;5050393;28;20773;-72
2021/05/08 03:14:18;;;;;;;0.93;0.60;;;22.00;34.00;;;;;;5051116;28;20444;-67
2021/05/08 03:16:44;;;;;;;0.60;0.40;;;22.00;34.00;;;;;;5051078;28;20390;-71
2021/05/08 03:19:10;;;;;;;0.80;0.47;;;22.00;33.90;;;;;;5033268;28;20397;-64
2021/05/08 03:21:36;;;;;;;0.55;0.40;;;22.00;33.90;;;;;;5050638;28;20435;-64
2021/05/08 03:24:03;;;;;;;0.83;0.53;;;22.00;33.90;;;;;;5050971;28;20381;-67
2021/05/08 03:26:28;;;;;;;1.58;0.50;;;22.00;33.80;;;;;;5050937;28;20393;-71
2021/05/08 03:28:54;;;;;;;1.20;0.40;;;22.00;33.90;;;;;;5050986;28;20393;-72
2021/05/08 03:31:20;;;;;;;0.80;0.50;;;22.00;33.90;;;;;;5050796;28;20425;-72
2021/05/08 03:33:46;;;;;;;0.80;0.50;;;21.90;33.80;;;;;;5053135;28;20386;-78
2021/05/08 03:36:11;;;;;;;0.80;0.50;;;22.00;33.90;;;;;;5054598;28;20766;-70
2021/05/08 03:38:37;;;;;;;0.70;0.40;;;22.00;33.90;;;;;;5054705;28;20737;-76
2021/05/08 03:41:04;;;;;;;0.85;0.50;;;22.00;33.90;;;;;;5054760;28;20400;-77
2021/05/08 03:43:30;;;;;;;0.70;0.43;;;21.90;33.80;;;;;;5054467;28;20400;-74
2021/05/08 03:45:56;;;;;;;1.00;0.50;;;22.00;33.90;;;;;;5053806;28;20393;-74
2021/05/08 03:48:22;;;;;;;0.77;0.50;;;22.00;33.90;;;;;;5054376;28;20378;-72
2021/05/08 03:50:48;;;;;;;0.70;0.50;;;22.00;33.90;;;;;;5054470;28;20393;-76
2021/05/08 03:53:14;;;;;;;0.80;0.43;;;22.00;33.90;;;;;;5054340;28;20385;-73
2021/05/08 03:55:40;;;;;;;0.63;0.40;;;21.90;33.80;;;;;;5036101;28;20764;-78
2021/05/08 03:58:06;;;;;;;1.02;0.60;;;21.90;33.80;;;;;;5054333;28;20869;-71
2021/05/08 04:00:33;;;;;;;0.90;0.43;;;21.90;33.90;;;;;;5054096;28;20394;-70
2021/05/08 04:02:59;;;;;;;0.90;0.50;;;21.90;33.90;;;;;;5054280;28;20386;-70
2021/05/08 04:05:25;;;;;;;0.82;0.60;;;21.90;33.80;;;;;;5036326;28;20901;-77
2021/05/08 04:07:51;;;;;;;0.90;0.60;;;21.90;33.80;;;;;;5053528;28;20447;-77
2021/05/08 04:10:18;;;;;;;0.68;0.47;;;21.90;33.80;;;;;;5054075;28;20401;-77
2021/05/08 04:12:44;;;;;;;0.77;0.50;;;21.90;33.80;;;;;;5053506;28;20409;-77
2021/05/08 04:15:10;;;;;;;1.17;0.60;;;21.90;33.80;;;;;;5054006;28;20967;-68
2021/05/08 04:17:37;;;;;;;0.80;0.50;;;21.90;33.70;;;;;;5053657;28;20386;-75
2021/05/08 04:20:04;;;;;;;0.60;0.40;;;21.90;33.70;;;;;;5053791;28;20447;-72
2021/05/08 04:22:29;;;;;;;0.80;0.50;;;21.90;33.80;;;;;;5053604;28;20428;-75
2021/05/08 04:24:55;;;;;;;1.00;0.60;;;21.90;33.80;;;;;;5053849;28;20416;-76
2021/05/08 04:27:20;;;;;;;0.90;0.52;;;21.90;33.80;;;;;;5053687;28;20393;-71
2021/05/08 04:29:46;;;;;;;1.00;0.50;;;21.90;33.80;;;;;;5053283;28;20393;-76
2021/05/08 04:32:12;;;;;;;0.70;0.50;;;21.90;33.80;;;;;;5053618;28;20400;-75
2021/05/08 04:34:37;;;;;;;0.98;0.43;;;21.90;33.80;;;;;;5053590;28;20413;-74
2021/05/08 04:37:03;;;;;;;0.90;0.50;;;21.90;33.70;;;;;;5053557;28;20412;-73
2021/05/08 04:39:29;;;;;;;0.90;0.60;;;21.90;33.80;;;;;;5053206;28;20390;-62
2021/05/08 04:41:54;;;;;;;0.95;0.60;;;21.90;33.80;;;;;;5053022;28;20409;-67
2021/05/08 04:44:20;;;;;;;1.30;0.52;;;21.80;33.80;;;;;;5052370;28;20401;-70
2021/05/08 04:46:48;;;;;;;0.75;0.50;;;21.80;33.80;;;;;;5035531;28;20408;-69
2021/05/08 04:49:14;;;;;;;0.90;0.50;;;21.80;33.80;;;;;;5053115;28;20477;-68
2021/05/08 04:51:39;;;;;;;1.00;0.60;;;21.80;33.80;;;;;;5052969;28;20550;-76
2021/05/08 04:54:05;;;;;;;0.98;0.50;;;21.80;33.80;;;;;;5035147;28;20566;-65
2021/05/08 04:56:31;;;;;;;1.00;0.60;;;21.80;33.80;;;;;;5052954;28;20428;-68
2021/05/08 04:58:56;;;;;;;1.07;0.60;;;21.80;33.80;;;;;;5053102;28;20504;-71
2021/05/08 05:01:22;;;;;;;1.02;0.50;;;21.80;33.70;;;;;;5035115;28;20892;-67
2021/05/08 05:03:48;;;;;;;2.20;0.60;;;21.90;33.70;;;;;;5034653;28;20479;-77
2021/05/08 05:06:13;;;;;;;2.47;0.70;;;21.90;34.10;;;;;;5052857;28;20393;-64
2021/05/08 05:08:39;;;;;;;1.30;0.63;;;22.00;33.60;;;;;;5034701;28;20397;-65
2021/05/08 05:11:04;;;;;;;2.10;0.70;;;22.00;33.40;;;;;;5052786;28;20861;-63
2021/05/08 05:13:30;;;;;;;1.20;0.70;;;22.00;33.70;;;;;;5053781;28;20405;-63
2021/05/08 05:15:56;;;;;;;2.13;0.70;;;21.90;33.70;;;;;;5034385;28;20943;-64
2021/05/08 05:18:21;;;;;;;1.83;0.80;;;21.90;33.90;;;;;;5052592;28;20395;-64
2021/05/08 05:20:47;;;;;;;1.67;0.70;;;21.90;33.90;;;;;;5052394;28;20396;-66
2021/05/08 05:23:13;;;;;;;1.73;0.75;;;21.90;33.90;;;;;;5052306;28;20385;-65
2021/05/08 05:25:39;;;;;;;1.57;0.90;;;21.90;34.00;;;;;;5052090;28;20397;-63
2021/05/08 05:28:19;;;;;;;1.60;0.75;;;21.90;33.90;;;;;;5052354;28;20413;-63
2021/05/08 05:30:45;;;;;;;3.00;0.90;;;21.90;33.90;;;;;;5052584;28;20386;-71
2021/05/08 05:33:10;;;;;;;1.90;0.90;;;21.80;34.10;;;;;;5052547;28;20803;-67
2021/05/08 05:35:36;;;;;;;2.47;1.00;;;21.80;34.00;;;;;;5052255;28;20985;-64
2021/05/08 05:38:02;;;;;;;1.60;1.00;;;21.70;33.80;;;;;;5033896;28;20386;-64
2021/05/08 05:40:27;;;;;;;2.07;0.90;;;21.70;33.80;;;;;;5052160;28;20393;-63
2021/05/08 05:42:53;;;;;;;2.50;1.05;;;21.70;33.80;;;;;;5034467;28;20394;-77
2021/05/08 05:45:19;;;;;;;2.03;1.10;;;21.70;33.60;;;;;;5052231;28;20400;-75
2021/05/08 05:47:53;;;;;;;2.20;1.10;;;21.70;33.70;;;;;;5051989;28;20392;-64
2021/05/08 05:50:18;;;;;;;2.05;1.00;;;21.80;33.70;;;;;;5052283;28;20397;-63
2021/05/08 05:52:47;;;;;;;1.53;0.90;;;21.70;33.80;;;;;;5052052;28;20385;-63
2021/05/08 05:55:12;;;;;;;2.47;1.00;;;21.70;33.80;;;;;;5049820;28;20417;-62
2021/05/08 05:57:38;;;;;;;3.20;1.10;;;21.70;33.70;;;;;;5040385;28;20393;-64
2021/05/08 06:00:04;;;;;;;3.40;1.08;;;21.70;33.90;;;;;;5051361;28;20816;-64
2021/05/08 06:02:33;;;;;;;4.03;1.17;;;21.70;33.80;;;;;;5051802;28;20393;-64
2021/05/08 06:04:59;;;;;;;3.15;1.20;;;21.70;33.70;;;;;;5051984;28;20431;-67
2021/05/08 06:07:25;;;;;;;3.87;1.10;;;21.70;33.70;;;;;;5052483;28;20385;-66
2021/05/08 06:09:50;;;;;;;5.53;1.40;;;21.70;34.50;;;;;;5053375;28;20869;-66
2021/05/08 06:12:16;;;;;;;4.33;1.20;;;21.70;34.10;;;;;;5051473;28;20401;-66
2021/05/08 06:14:41;;;;;;;3.65;1.42;;;21.70;33.90;;;;;;5051553;28;20440;-65
2021/05/08 06:17:07;;;;;;;5.07;1.50;;;21.70;33.60;;;;;;5051747;28;20397;-66
2021/05/08 06:19:33;;;;;;;2.35;1.30;;;21.80;33.70;;;;;;5051510;28;20812;-66
2021/05/08 06:21:58;;;;;;;4.70;1.30;;;21.80;33.50;;;;;;5052333;28;20475;-78
2021/05/08 06:24:24;;;;;;;2.95;1.00;;;21.80;33.70;;;;;;5053029;28;20374;-71
2021/05/08 06:26:50;;;;;;;2.60;1.17;;;21.80;33.70;;;;;;5033713;28;20405;-66
2021/05/08 06:29:15;;;;;;;5.00;1.20;;;21.80;33.60;;;;;;5051436;28;20413;-72
2021/05/08 06:31:41;;;;;;;3.43;1.10;;;21.90;33.90;;;;;;5051754;28;20385;-70
2021/05/08 06:34:07;;;;;;;3.95;1.05;;;22.00;33.90;;;;;;5050986;28;20386;-72
2021/05/08 06:36:32;;;;;;;3.40;1.10;;;21.90;34.20;;;;;;5045879;28;20920;-66
2021/05/08 06:38:58;;;;;;;3.83;1.10;;;22.00;34.20;;;;;;5018666;28;20387;-74
2021/05/08 06:41:24;;;;;;;2.67;1.00;;;22.00;34.20;;;;;;5027092;28;20407;-74
2021/05/08 06:43:49;;;;;;;3.58;1.00;;;22.10;34.00;;;;;;5030834;28;20414;-77
2021/05/08 06:46:15;;;;;;;3.08;0.90;;;22.10;33.80;;;;;;5051358;28;20485;-76
2021/05/08 06:48:41;;;;;;;2.00;0.97;;;22.10;33.70;;;;;;5051440;28;20424;-69
2021/05/08 06:51:08;;;;;;;2.70;0.95;;;22.10;33.70;;;;;;5033580;28;20400;-64
2021/05/08 06:53:35;;;;;;;3.13;0.90;;;22.10;33.70;;;;;;5051177;28;20390;-65
2021/05/08 06:56:01;;;;;;;2.60;0.95;;;22.20;33.80;;;;;;5050660;28;20464;-68
2021/05/08 06:58:26;;;;;;;2.40;0.90;;;22.20;33.80;;;;;;5051199;28;20409;-65
2021/05/08 07:00:52;;;;;;;2.58;0.90;;;22.20;33.80;;;;;;5051330;28;20396;-64
2021/05/08 07:03:18;;;;;;;4.30;1.10;;;22.20;33.30;;;;;;5051044;28;20389;-63
2021/05/08 07:05:43;;;;;;;3.30;1.08;;;22.30;34.20;;;;;;5050979;28;20386;-64
2021/05/08 07:08:10;;;;;;;4.27;0.97;;;22.20;33.80;;;;;;5052616;28;20420;-66
2021/05/08 07:10:50;;;;;;;3.50;0.90;;;22.30;34.30;;;;;;5046572;28;20406;-64
2021/05/08 07:13:16;;;;;;;6.65;1.10;;;22.40;34.60;;;;;;5034664;28;20403;-63
2021/05/08 07:15:42;;;;;;;5.15;1.10;;;22.40;34.40;;;;;;5034886;28;20506;-62
2021/05/08 07:18:09;;;;;;;4.40;0.93;;;22.30;34.20;;;;;;5034292;28;20494;-63
2021/05/08 07:20:36;;;;;;;4.80;0.95;;;22.30;33.80;;;;;;5034735;28;20395;-63
2021/05/08 07:23:03;;;;;;;3.08;1.08;;;22.40;33.80;;;;;;5034588;28;20736;-62
2021/05/08 07:25:29;;;;;;;4.00;0.90;;;22.40;33.60;;;;;;5034805;28;20393;-63
2021/05/08 07:28:10;;;;;;;5.57;1.23;;;22.50;33.60;;;;;;5034344;28;20474;-63
2021/05/08 07:30:37;;;;;;;6.10;1.05;;;22.50;33.50;;;;;;5034760;28;20821;-63
2021/05/08 07:33:03;;;;;;;4.43;1.10;;;22.60;33.60;;;;;;5034621;28;20380;-62
2021/05/08 07:35:28;;;;;;;4.00;1.00;;;22.60;33.60;;;;;;5036068;28;20423;-63
2021/05/08 07:37:54;;;;;;;2.72;0.80;;;22.60;33.60;;;;;;5051791;28;20400;-64
2021/05/08 07:40:20;;;;;;;2.80;0.80;;;22.70;33.70;;;;;;5031248;28;20553;-69
2021/05/08 07:42:45;;;;;;;1.80;0.60;;;22.60;33.60;;;;;;5034004;28;20436;-63
2021/05/08 07:45:11;;;;;;;2.40;0.97;;;22.70;33.70;;;;;;5034389;28;20383;-63
2021/05/08 07:47:38;;;;;;;4.70;1.00;;;22.70;33.60;;;;;;5034533;28;20400;-63
2021/05/08 07:50:05;;;;;;;2.72;0.75;;;22.70;33.60;;;;;;5033855;28;20394;-64
2021/05/08 07:52:30;;;;;;;3.30;1.08;;;22.70;34.00;;;;;;5034284;28;20398;-63
2021/05/08 07:54:56;;;;;;;3.13;0.60;;;22.70;33.60;;;;;;5034327;28;20411;-71
2021/05/08 07:57:21;;;;;;;2.85;1.00;;;22.70;33.50;;;;;;5034278;28;20411;-63
2021/05/08 07:59:47;;;;;;;4.47;0.80;;;22.80;33.50;;;;;;5033848;28;20387;-63
2021/05/08 08:02:14;;;;;;;2.67;0.63;;;22.80;33.40;;;;;;5033412;28;20911;-64
2021/05/08 08:04:40;;;;;;;1.85;0.60;;;22.80;33.50;;;;;;5034053;28;20798;-63
2021/05/08 08:07:06;;;;;;;3.03;0.80;;;22.80;33.30;;;;;;5014968;28;20395;-63
2021/05/08 08:09:31;;;;;;;1.63;0.73;;;22.80;33.20;;;;;;5032088;28;20388;-64
2021/05/08 08:11:57;;;;;;;2.23;0.80;;;22.90;33.30;;;;;;5022774;28;20407;-77
2021/05/08 08:14:22;;;;;;;2.08;0.60;;;22.90;33.20;;;;;;5031102;28;20434;-64
2021/05/08 08:16:48;;;;;;;1.60;0.70;;;22.90;33.30;;;;;;5033031;28;20909;-74
2021/05/08 08:19:14;;;;;;;1.75;0.75;;;22.90;33.20;;;;;;5032647;28;20429;-63
2021/05/08 08:21:41;;;;;;;1.90;0.60;;;22.90;33.20;;;;;;5033509;28;20403;-63
2021/05/08 08:24:07;;;;;;;1.38;0.68;;;22.90;33.20;;;;;;5015130;28;20402;-63
2021/05/08 08:26:33;;;;;;;1.77;0.52;;;22.90;33.00;;;;;;5032223;28;20434;-64
2021/05/08 08:28:59;;;;;;;2.17;0.60;;;22.90;32.70;;;;;;5033416;28;20875;-63
2021/05/08 08:31:26;;;;;;;1.10;0.50;;;23.00;33.00;;;;;;5033539;28;20748;-63
2021/05/08 08:33:52;;;;;;;1.17;0.50;;;23.00;32.70;;;;;;5031547;28;20433;-64
2021/05/08 08:36:18;;;;;;;1.43;0.60;;;23.00;32.60;;;;;;5033088;28;20450;-66
2021/05/08 08:38:43;;;;;;;1.20;0.50;;;23.00;32.60;;;;;;5015527;28;20391;-65
2021/05/08 08:41:09;;;;;;;2.37;0.70;;;23.00;34.60;;;;;;5033331;28;20498;-75
2021/05/08 08:43:35;;;;;;;1.88;0.70;;;23.00;34.50;;;;;;5033677;28;20387;-78
2021/05/08 08:46:02;;;;;;;1.90;0.80;;;23.00;35.10;;;;;;5032097;28;20430;-79
2021/05/08 08:48:27;;;;;;;2.60;0.75;;;23.00;34.50;;;;;;5033841;28;20932;-80
2021/05/08 08:50:54;;;;;;;2.57;0.70;;;23.10;34.80;;;;;;5033832;28;20399;-80
2021/05/08 08:53:19;;;;;;;2.45;0.68;;;23.10;34.50;;;;;;5033695;28;20387;-81
2021/05/08 08:55:53;;;;;;;5.30;0.80;;;23.20;34.40;;;;;;5035310;28;20580;-79
2021/05/08 08:58:25;;;;;;;2.33;0.85;;;23.20;35.00;;;;;;5017455;28;20391;-79
2021/05/08 09:00:51;;;;;;;2.13;0.70;;;23.20;35.40;;;;;;5033184;28;20489;-76
2021/05/08 09:03:16;;;;;;;2.50;0.73;;;23.30;34.70;;;;;;5032995;28;20468;-64
2021/05/08 09:05:42;;;;;;;4.88;0.88;;;23.30;33.90;;;;;;5020335;28;20547;-63
2021/05/08 09:08:09;;;;;;;3.10;0.80;;;23.30;32.50;;;;;;5052141;28;20389;-63
2021/05/08 09:10:35;;;;;;;2.72;0.80;;;23.30;31.80;;;;;;5048683;28;20953;-63
2021/05/08 09:13:04;;;;;;;5.95;0.73;;;23.30;31.70;;;;;;5032406;28;20408;-63
2021/05/08 09:15:38;;;;;;;3.60;0.70;;;23.30;31.70;;;;;;5032577;28;20402;-63
2021/05/08 09:18:05;;;;;;;2.42;0.70;;;23.40;31.90;;;;;;5032147;28;20387;-63
2021/05/08 09:20:48;;;;;;;3.42;0.65;;;23.40;31.90;;;;;;5032559;28;20383;-63
2021/05/08 09:23:24;;;;;;;2.70;0.60;;;23.40;32.10;;;;;;5034179;28;20947;-66
2021/05/08 09:26:06;;;;;;;2.80;0.70;;;23.40;32.40;;;;;;5014961;28;20388;-63
2021/05/08 09:28:37;;;;;;;2.60;0.60;;;23.50;32.20;;;;;;5032483;28;20402;-66
2021/05/08 09:31:11;;;;;;;2.25;0.70;;;23.50;32.40;;;;;;5031898;28;20879;-63
2021/05/08 09:33:37;;;;;;;1.52;0.60;;;23.60;32.60;;;;;;5032622;28;20405;-77
2021/05/08 09:36:07;;;;;;;1.85;0.60;;;23.60;32.50;;;;;;5032313;28;20985;-79
2021/05/08 09:38:36;;;;;;;2.17;0.60;;;23.60;32.60;;;;;;5032726;28;20384;-64
2021/05/08 09:41:06;;;;;;;1.40;0.60;;;23.70;32.70;;;;;;5014656;28;20805;-63
2021/05/08 09:43:32;;;;;;;2.10;0.52;;;23.70;32.80;;;;;;5032121;28;20462;-63
2021/05/08 09:45:59;;;;;;;1.38;0.50;;;23.70;32.80;;;;;;5031975;28;20395;-76
2021/05/08 09:48:27;;;;;;;1.85;0.60;;;23.70;32.80;;;;;;5032207;28;20387;-64
2021/05/08 09:50:54;;;;;;;1.55;0.60;;;23.70;32.80;;;;;;5014398;28;20399;-63
2021/05/08 09:53:31;;;;;;;2.55;0.60;;;23.80;32.90;;;;;;5031997;28;20926;-63
2021/05/08 09:55:57;;;;;;;1.30;0.57;;;23.80;32.80;;;;;;5031705;28;20423;-62
2021/05/08 09:58:24;;;;;;;1.75;0.63;;;23.90;32.90;;;;;;5031522;28;20426;-63
2021/05/08 10:00:51;;;;;;;1.80;0.50;;;23.90;32.90;;;;;;5031898;28;20752;-70
2021/05/08 10:03:19;;;;;;;2.10;0.50;;;23.90;32.90;;;;;;5013965;28;20828;-63
2021/05/08 10:06:06;;;;;;;1.10;0.55;;;24.00;32.90;;;;;;5014086;28;20753;-73
2021/05/08 10:08:32;;;;;;;2.00;0.60;;;24.00;32.90;;;;;;5032136;28;20937;-79
2021/05/08 10:10:58;;;;;;;1.70;0.60;;;24.00;32.70;;;;;;5031905;28;20387;-65
2021/05/08 10:13:27;;;;;;;1.70;0.50;;;24.00;32.60;;;;;;5031451;28;20422;-67
2021/05/08 10:15:54;;;;;;;1.40;0.50;;;24.10;32.60;;;;;;5032003;28;20422;-79
2021/05/08 10:18:20;;;;;;;1.02;0.45;;;24.10;32.60;;;;;;5013507;28;20876;-75
2021/05/08 10:20:49;;;;;;;1.00;0.50;;;24.10;32.80;;;;;;5031714;28;20391;-64
2021/05/08 10:23:14;;;;;;;1.63;0.60;;;24.10;32.80;;;;;;5031561;28;20739;-62
2021/05/08 10:25:41;;;;;;;1.30;0.53;;;24.20;32.90;;;;;;5031523;28;20387;-63
2021/05/08 10:28:08;;;;;;;2.15;0.70;;;24.20;32.90;;;;;;5013211;28;20402;-69
2021/05/08 10:30:39;;;;;;;2.47;0.63;;;24.10;31.80;;;;;;5031653;28;20431;-76
2021/05/08 10:33:09;;;;;;;2.22;0.70;;;24.00;31.10;;;;;;5031504;28;20394;-63
2021/05/08 10:35:44;;;;;;;1.50;0.80;;;24.00;30.40;;;;;;5031599;28;20422;-77
2021/05/08 10:38:34;;;;;;;1.95;0.80;;;23.90;30.00;;;;;;5031048;28;20394;-78
2021/05/08 10:41:04;;;;;;;1.92;0.80;;;24.00;29.90;;;;;;5032010;28;20375;-79
2021/05/08 10:43:42;;;;;;;1.90;0.70;;;23.90;29.90;;;;;;5031095;28;20421;-79
2021/05/08 10:46:11;;;;;;;2.00;0.80;;;24.00;29.60;;;;;;5013307;28;20944;-65
2021/05/08 10:48:37;;;;;;;2.25;0.80;;;24.00;28.90;;;;;;5031595;28;20438;-75
2021/05/08 10:51:04;;;;;;;2.40;0.70;;;24.00;28.70;;;;;;5031500;28;20386;-79
2021/05/08 10:53:42;;;;;;;2.53;0.80;;;23.90;29.40;;;;;;5031489;28;20414;-79
2021/05/08 10:56:32;;;;;;;1.80;0.82;;;23.90;29.20;;;;;;5030959;28;20887;-78
2021/05/08 10:59:07;;;;;;;1.23;0.77;;;24.00;29.00;;;;;;5031517;28;20391;-79
2021/05/08 11:01:41;;;;;;;1.60;0.70;;;23.90;29.00;;;;;;5031335;28;20855;-63
2021/05/08 11:04:07;;;;;;;1.60;0.60;;;24.00;28.80;;;;;;5012828;28;20395;-64
2021/05/08 11:06:32;;;;;;;3.67;0.70;;;24.10;28.90;;;;;;5013481;28;20802;-63
2021/05/08 11:08:59;;;;;;;4.32;0.88;;;24.00;29.30;;;;;;5031118;28;20390;-63
2021/05/08 11:11:44;;;;;;;5.70;0.98;;;24.00;29.00;;;;;;5030922;28;20440;-64
2021/05/08 11:14:10;;;;;;;4.65;0.90;;;24.00;29.00;;;;;;5012797;28;20596;-63
2021/05/08 11:16:35;;;;;;;5.03;0.85;;;24.10;28.80;;;;;;5013145;28;20426;-63
2021/05/08 11:19:05;;;;;;;4.50;0.80;;;24.10;28.80;;;;;;5031102;28;20384;-63
2021/05/08 11:21:31;;;;;;;3.22;0.80;;;24.10;29.00;;;;;;5030867;28;20942;-64
2021/05/08 11:24:09;;;;;;;2.97;0.75;;;24.20;29.30;;;;;;5031075;28;20598;-65
2021/05/08 11:26:37;;;;;;;2.10;0.80;;;24.20;29.50;;;;;;5030949;28;20430;-65
2021/05/08 11:29:20;;;;;;;4.70;0.80;;;24.30;29.60;;;;;;5031100;28;20533;-78
2021/05/08 11:31:55;;;;;;;2.95;0.80;;;24.30;29.70;;;;;;5013670;28;20399;-78
2021/05/08 11:34:28;;;;;;;3.13;0.70;;;24.40;29.90;;;;;;5030607;28;20963;-76
2021/05/08 11:37:01;;;;;;;2.03;0.70;;;24.50;30.10;;;;;;5031053;28;20783;-78
2021/05/08 11:39:29;;;;;;;2.97;0.60;;;24.50;30.00;;;;;;5030852;28;20747;-63
2021/05/08 11:42:24;;;;;;;2.13;0.55;;;24.60;30.20;;;;;;5030795;28;20410;-63
2021/05/08 11:44:58;;;;;;;1.13;0.50;;;24.60;30.30;;;;;;5000719;28;20396;-64
2021/05/08 11:47:32;;;;;;;1.80;0.50;;;24.60;30.40;;;;;;5030750;28;20427;-71
2021/05/08 11:50:09;;;;;;;2.35;0.55;;;24.60;30.40;;;;;;5031023;28;20426;-79
2021/05/08 11:52:38;;;;;;;2.30;0.75;;;24.70;30.20;;;;;;5030867;28;20395;-78
2021/05/08 11:55:07;;;;;;;1.30;0.50;;;24.70;30.00;;;;;;5033612;28;20457;-79
2021/05/08 11:57:35;;;;;;;3.37;0.70;;;24.70;30.00;;;;;;5034545;28;20419;-78
2021/05/08 12:00:13;;;;;;;1.25;0.50;;;24.70;30.10;;;;;;5033952;28;20732;-69
2021/05/08 12:02:39;;;;;;;3.13;0.60;;;24.70;30.30;;;;;;5016750;28;20393;-78
2021/05/08 12:05:05;;;;;;;1.63;0.60;;;24.70;30.30;;;;;;5034421;28;20746;-78
2021/05/08 12:07:31;;;;;;;1.70;0.70;;;24.80;30.50;;;;;;5016616;28;20396;-74
2021/05/08 12:10:16;;;;;;;1.60;0.50;;;24.80;30.50;;;;;;5034214;28;20379;-78
2021/05/08 12:12:54;;;;;;;2.10;0.60;;;24.90;30.50;;;;;;5014364;28;20885;-78
2021/05/08 12:15:30;;;;;;;1.88;0.60;;;24.90;30.60;;;;;;5031377;28;20410;-64
2021/05/08 12:17:58;;;;;;;2.70;0.50;;;24.90;30.50;;;;;;5033961;28;20387;-66
2021/05/08 12:20:26;;;;;;;1.10;0.50;;;25.00;30.60;;;;;;5033316;28;20962;-78
2021/05/08 12:22:54;;;;;;;2.05;0.60;;;25.00;30.40;;;;;;5033885;28;20716;-79
2021/05/08 12:25:21;;;;;;;1.85;0.50;;;25.00;30.50;;;;;;5032210;28;20455;-65
2021/05/08 12:27:47;;;;;;;2.17;0.70;;;25.00;30.60;;;;;;5053544;28;20396;-63
2021/05/08 12:30:15;;;;;;;2.50;0.60;;;25.10;30.60;;;;;;5033275;28;20393;-65
2021/05/08 12:32:53;;;;;;;1.80;0.60;;;25.10;30.70;;;;;;5053304;28;20389;-65
2021/05/08 12:35:20;;;;;;;1.90;0.57;;;25.10;30.60;;;;;;5052250;28;20417;-63
2021/05/08 12:37:47;;;;;;;7.03;1.00;;;25.20;30.80;;;;;;5052107;28;20893;-78
2021/05/08 12:40:14;;;;;;;21.87;2.80;;;25.20;30.50;;;;;;5052367;28;20389;-71
2021/05/08 12:42:45;;;;;;;16.25;2.10;;;25.20;29.90;;;;;;5053319;28;20421;-64
2021/05/08 12:45:12;;;;;;;18.80;2.45;;;25.30;29.60;;;;;;5053236;28;20493;-63
2021/05/08 12:47:47;;;;;;;17.75;2.67;;;25.30;29.80;;;;;;5053136;28;20816;-63